sensor_id;sensor_type;location;lat;lon;timestamp;P1;durP1;ratioP1;P2;durP2;ratioP2
13051;SDS011;6592;47.484;9.726;2023-05-10T00:01:26;1.48;;;0.45;;
13051;SDS011;6592;47.484;9.726;2023-05-10T00:03:55;0.77;;;0.20;;
13051;SDS011;6592;47.484;9.726;2023-05-10T00:06:24;1.33;;;0.22;;
13051;SDS011;6592;47.484;9.726;2023-05-10T00:08:54;0.95;;;0.40;;
13051;SDS011;6592;47.484;9.726;2023-05-10T00:11:25;0.63;;;0.32;;
13051;SDS011;6592;47.484;9.726;2023-05-10T00:13:53;1.27;;;0.40;;
13051;SDS011;6592;47.484;9.726;2023-05-10T00:16:22;4.85;;;0.50;;
13051;SDS011;6592;47.484;9.726;2023-05-10T00:18:51;0.60;;;0.32;;
13051;SDS011;6592;47.484;9.726;2023-05-10T00:21:19;1.23;;;0.40;;
13051;SDS011;6592;47.484;9.726;2023-05-10T00:23:48;0.90;;;0.30;;
13051;SDS011;6592;47.484;9.726;2023-05-10T00:26:18;1.00;;;0.40;;
13051;SDS011;6592;47.484;9.726;2023-05-10T00:28:47;0.82;;;0.20;;
13051;SDS011;6592;47.484;9.726;2023-05-10T00:31:16;0.90;;;0.40;;
13051;SDS011;6592;47.484;9.726;2023-05-10T00:33:44;2.78;;;0.40;;
13051;SDS011;6592;47.484;9.726;2023-05-10T00:36:13;0.77;;;0.40;;
13051;SDS011;6592;47.484;9.726;2023-05-10T00:38:42;0.55;;;0.35;;
13051;SDS011;6592;47.484;9.726;2023-05-10T00:41:10;0.80;;;0.40;;
13051;SDS011;6592;47.484;9.726;2023-05-10T00:43:41;1.35;;;0.60;;
13051;SDS011;6592;47.484;9.726;2023-05-10T00:46:09;0.85;;;0.50;;
13051;SDS011;6592;47.484;9.726;2023-05-10T00:48:38;2.10;;;0.45;;
13051;SDS011;6592;47.484;9.726;2023-05-10T00:51:07;2.00;;;0.60;;
13051;SDS011;6592;47.484;9.726;2023-05-10T00:53:36;2.42;;;0.75;;
13051;SDS011;6592;47.484;9.726;2023-05-10T00:56:04;1.63;;;0.60;;
13051;SDS011;6592;47.484;9.726;2023-05-10T00:58:33;0.65;;;0.30;;
13051;SDS011;6592;47.484;9.726;2023-05-10T01:01:03;0.50;;;0.20;;
13051;SDS011;6592;47.484;9.726;2023-05-10T01:03:33;1.15;;;0.20;;
13051;SDS011;6592;47.484;9.726;2023-05-10T01:06:01;0.32;;;0.10;;
13051;SDS011;6592;47.484;9.726;2023-05-10T01:08:30;0.20;;;0.10;;
13051;SDS011;6592;47.484;9.726;2023-05-10T01:10:58;3.83;;;0.20;;
13051;SDS011;6592;47.484;9.726;2023-05-10T01:13:30;0.20;;;0.10;;
13051;SDS011;6592;47.484;9.726;2023-05-10T01:16:00;0.65;;;0.10;;
13051;SDS011;6592;47.484;9.726;2023-05-10T01:18:31;0.88;;;0.17;;
13051;SDS011;6592;47.484;9.726;2023-05-10T01:21:05;0.17;;;0.10;;
13051;SDS011;6592;47.484;9.726;2023-05-10T01:23:49;0.90;;;0.10;;
13051;SDS011;6592;47.484;9.726;2023-05-10T01:26:46;0.10;;;0.10;;
13051;SDS011;6592;47.484;9.726;2023-05-10T01:32:44;0.68;;;0.15;;
13051;SDS011;6592;47.484;9.726;2023-05-10T01:35:23;2.55;;;0.30;;
13051;SDS011;6592;47.484;9.726;2023-05-10T01:38:01;0.40;;;0.20;;
13051;SDS011;6592;47.484;9.726;2023-05-10T01:40:35;0.32;;;0.10;;
13051;SDS011;6592;47.484;9.726;2023-05-10T01:43:11;0.30;;;0.10;;
13051;SDS011;6592;47.484;9.726;2023-05-10T01:45:47;0.32;;;0.13;;
13051;SDS011;6592;47.484;9.726;2023-05-10T01:48:23;0.47;;;0.20;;
13051;SDS011;6592;47.484;9.726;2023-05-10T01:50:55;1.00;;;0.25;;
13051;SDS011;6592;47.484;9.726;2023-05-10T01:53:25;0.47;;;0.10;;
13051;SDS011;6592;47.484;9.726;2023-05-10T01:55:54;0.93;;;0.20;;
13051;SDS011;6592;47.484;9.726;2023-05-10T01:58:25;0.17;;;0.10;;
13051;SDS011;6592;47.484;9.726;2023-05-10T02:00:56;0.45;;;0.20;;
13051;SDS011;6592;47.484;9.726;2023-05-10T02:03:28;0.63;;;0.15;;
13051;SDS011;6592;47.484;9.726;2023-05-10T02:05:58;0.17;;;0.10;;
13051;SDS011;6592;47.484;9.726;2023-05-10T02:08:27;0.40;;;0.10;;
13051;SDS011;6592;47.484;9.726;2023-05-10T02:10:56;0.50;;;0.20;;
13051;SDS011;6592;47.484;9.726;2023-05-10T02:13:25;0.45;;;0.20;;
13051;SDS011;6592;47.484;9.726;2023-05-10T02:15:54;0.52;;;0.28;;
13051;SDS011;6592;47.484;9.726;2023-05-10T02:18:24;0.82;;;0.20;;
13051;SDS011;6592;47.484;9.726;2023-05-10T02:20:55;0.47;;;0.28;;
13051;SDS011;6592;47.484;9.726;2023-05-10T02:23:25;0.30;;;0.13;;
13051;SDS011;6592;47.484;9.726;2023-05-10T02:25:54;0.25;;;0.10;;
13051;SDS011;6592;47.484;9.726;2023-05-10T02:28:23;0.60;;;0.32;;
13051;SDS011;6592;47.484;9.726;2023-05-10T02:30:53;1.58;;;0.30;;
13051;SDS011;6592;47.484;9.726;2023-05-10T02:33:22;0.77;;;0.22;;
13051;SDS011;6592;47.484;9.726;2023-05-10T02:35:51;0.65;;;0.30;;
13051;SDS011;6592;47.484;9.726;2023-05-10T02:38:21;1.52;;;0.30;;
13051;SDS011;6592;47.484;9.726;2023-05-10T02:40:52;0.90;;;0.38;;
13051;SDS011;6592;47.484;9.726;2023-05-10T02:43:21;0.47;;;0.28;;
13051;SDS011;6592;47.484;9.726;2023-05-10T02:45:51;1.85;;;0.40;;
13051;SDS011;6592;47.484;9.726;2023-05-10T02:48:20;3.97;;;0.32;;
13051;SDS011;6592;47.484;9.726;2023-05-10T02:50:48;2.25;;;0.52;;
13051;SDS011;6592;47.484;9.726;2023-05-10T02:53:22;0.88;;;0.35;;
13051;SDS011;6592;47.484;9.726;2023-05-10T02:55:59;0.85;;;0.30;;
13051;SDS011;6592;47.484;9.726;2023-05-10T03:00:58;1.38;;;0.40;;
13051;SDS011;6592;47.484;9.726;2023-05-10T03:03:27;0.70;;;0.30;;
13051;SDS011;6592;47.484;9.726;2023-05-10T03:05:55;1.30;;;0.40;;
13051;SDS011;6592;47.484;9.726;2023-05-10T03:08:26;1.77;;;0.40;;
13051;SDS011;6592;47.484;9.726;2023-05-10T03:10:58;2.40;;;0.50;;
13051;SDS011;6592;47.484;9.726;2023-05-10T03:13:44;0.88;;;0.35;;
13051;SDS011;6592;47.484;9.726;2023-05-10T03:16:22;1.40;;;0.50;;
13051;SDS011;6592;47.484;9.726;2023-05-10T03:18:56;1.83;;;0.40;;
13051;SDS011;6592;47.484;9.726;2023-05-10T03:21:29;0.80;;;0.40;;
13051;SDS011;6592;47.484;9.726;2023-05-10T03:24:02;1.73;;;0.40;;
13051;SDS011;6592;47.484;9.726;2023-05-10T03:26:34;0.73;;;0.30;;
13051;SDS011;6592;47.484;9.726;2023-05-10T03:29:04;1.40;;;0.50;;
13051;SDS011;6592;47.484;9.726;2023-05-10T03:31:34;1.13;;;0.30;;
13051;SDS011;6592;47.484;9.726;2023-05-10T03:34:03;1.60;;;0.40;;
13051;SDS011;6592;47.484;9.726;2023-05-10T03:36:31;2.58;;;0.47;;
13051;SDS011;6592;47.484;9.726;2023-05-10T03:39:01;1.23;;;0.40;;
13051;SDS011;6592;47.484;9.726;2023-05-10T03:41:30;1.23;;;0.50;;
13051;SDS011;6592;47.484;9.726;2023-05-10T03:43:58;1.23;;;0.50;;
13051;SDS011;6592;47.484;9.726;2023-05-10T03:46:26;1.20;;;0.35;;
13051;SDS011;6592;47.484;9.726;2023-05-10T03:48:54;0.35;;;0.30;;
13051;SDS011;6592;47.484;9.726;2023-05-10T03:51:22;1.33;;;0.43;;
13051;SDS011;6592;47.484;9.726;2023-05-10T03:53:54;2.30;;;0.50;;
13051;SDS011;6592;47.484;9.726;2023-05-10T03:56:23;0.90;;;0.40;;
13051;SDS011;6592;47.484;9.726;2023-05-10T03:58:52;1.15;;;0.40;;
13051;SDS011;6592;47.484;9.726;2023-05-10T04:01:20;1.80;;;0.32;;
13051;SDS011;6592;47.484;9.726;2023-05-10T04:03:48;0.75;;;0.30;;
13051;SDS011;6592;47.484;9.726;2023-05-10T04:06:16;0.85;;;0.40;;
13051;SDS011;6592;47.484;9.726;2023-05-10T04:08:44;1.13;;;0.40;;
13051;SDS011;6592;47.484;9.726;2023-05-10T04:11:13;1.45;;;0.50;;
13051;SDS011;6592;47.484;9.726;2023-05-10T04:13:42;1.42;;;0.47;;
13051;SDS011;6592;47.484;9.726;2023-05-10T04:16:10;0.60;;;0.40;;
13051;SDS011;6592;47.484;9.726;2023-05-10T04:18:39;0.85;;;0.52;;
13051;SDS011;6592;47.484;9.726;2023-05-10T04:21:10;2.63;;;0.60;;
13051;SDS011;6592;47.484;9.726;2023-05-10T04:23:40;1.42;;;0.60;;
13051;SDS011;6592;47.484;9.726;2023-05-10T04:26:08;2.55;;;1.10;;
13051;SDS011;6592;47.484;9.726;2023-05-10T04:28:36;3.15;;;1.52;;
13051;SDS011;6592;47.484;9.726;2023-05-10T04:31:07;1.50;;;0.80;;
13051;SDS011;6592;47.484;9.726;2023-05-10T04:33:37;3.35;;;0.80;;
13051;SDS011;6592;47.484;9.726;2023-05-10T04:36:05;3.13;;;0.70;;
13051;SDS011;6592;47.484;9.726;2023-05-10T04:38:33;2.72;;;0.70;;
13051;SDS011;6592;47.484;9.726;2023-05-10T04:41:05;1.05;;;0.68;;
13051;SDS011;6592;47.484;9.726;2023-05-10T04:43:33;2.80;;;0.70;;
13051;SDS011;6592;47.484;9.726;2023-05-10T04:46:02;1.55;;;0.60;;
13051;SDS011;6592;47.484;9.726;2023-05-10T04:48:32;3.38;;;0.65;;
13051;SDS011;6592;47.484;9.726;2023-05-10T04:51:01;1.00;;;0.50;;
13051;SDS011;6592;47.484;9.726;2023-05-10T04:53:30;1.15;;;0.60;;
13051;SDS011;6592;47.484;9.726;2023-05-10T04:55:58;2.60;;;0.70;;
13051;SDS011;6592;47.484;9.726;2023-05-10T04:58:27;2.35;;;0.82;;
13051;SDS011;6592;47.484;9.726;2023-05-10T05:00:55;2.28;;;0.65;;
13051;SDS011;6592;47.484;9.726;2023-05-10T05:03:23;1.13;;;0.50;;
13051;SDS011;6592;47.484;9.726;2023-05-10T05:05:53;2.28;;;1.00;;
13051;SDS011;6592;47.484;9.726;2023-05-10T05:08:21;1.90;;;1.00;;
13051;SDS011;6592;47.484;9.726;2023-05-10T05:10:50;2.88;;;0.75;;
13051;SDS011;6592;47.484;9.726;2023-05-10T05:13:18;2.15;;;1.10;;
13051;SDS011;6592;47.484;9.726;2023-05-10T05:15:46;3.53;;;1.00;;
13051;SDS011;6592;47.484;9.726;2023-05-10T05:18:15;3.45;;;0.90;;
13051;SDS011;6592;47.484;9.726;2023-05-10T05:20:43;1.17;;;0.55;;
13051;SDS011;6592;47.484;9.726;2023-05-10T05:23:12;1.25;;;0.45;;
13051;SDS011;6592;47.484;9.726;2023-05-10T05:25:41;1.30;;;0.57;;
13051;SDS011;6592;47.484;9.726;2023-05-10T05:28:09;1.67;;;0.80;;
13051;SDS011;6592;47.484;9.726;2023-05-10T05:30:37;1.65;;;0.60;;
13051;SDS011;6592;47.484;9.726;2023-05-10T05:33:05;1.00;;;0.50;;
13051;SDS011;6592;47.484;9.726;2023-05-10T05:35:33;1.38;;;0.60;;
13051;SDS011;6592;47.484;9.726;2023-05-10T05:38:02;1.70;;;0.52;;
13051;SDS011;6592;47.484;9.726;2023-05-10T05:40:31;1.13;;;0.60;;
13051;SDS011;6592;47.484;9.726;2023-05-10T05:42:59;1.80;;;0.60;;
13051;SDS011;6592;47.484;9.726;2023-05-10T05:45:28;1.27;;;0.60;;
13051;SDS011;6592;47.484;9.726;2023-05-10T05:47:56;3.03;;;0.60;;
13051;SDS011;6592;47.484;9.726;2023-05-10T05:50:25;1.23;;;0.52;;
13051;SDS011;6592;47.484;9.726;2023-05-10T05:52:53;3.40;;;0.50;;
13051;SDS011;6592;47.484;9.726;2023-05-10T05:55:21;3.42;;;0.80;;
13051;SDS011;6592;47.484;9.726;2023-05-10T05:57:51;2.55;;;0.70;;
13051;SDS011;6592;47.484;9.726;2023-05-10T06:00:20;2.00;;;1.00;;
13051;SDS011;6592;47.484;9.726;2023-05-10T06:02:49;1.50;;;0.70;;
13051;SDS011;6592;47.484;9.726;2023-05-10T06:05:17;2.55;;;0.90;;
13051;SDS011;6592;47.484;9.726;2023-05-10T06:07:46;2.80;;;0.75;;
13051;SDS011;6592;47.484;9.726;2023-05-10T06:10:14;2.10;;;0.60;;
13051;SDS011;6592;47.484;9.726;2023-05-10T06:12:42;1.08;;;0.50;;
13051;SDS011;6592;47.484;9.726;2023-05-10T06:15:12;1.38;;;0.50;;
13051;SDS011;6592;47.484;9.726;2023-05-10T06:17:41;1.23;;;0.40;;
13051;SDS011;6592;47.484;9.726;2023-05-10T06:20:11;1.60;;;0.70;;
13051;SDS011;6592;47.484;9.726;2023-05-10T06:22:40;1.30;;;0.50;;
13051;SDS011;6592;47.484;9.726;2023-05-10T06:25:08;1.92;;;0.47;;
13051;SDS011;6592;47.484;9.726;2023-05-10T06:27:37;1.30;;;0.43;;
13051;SDS011;6592;47.484;9.726;2023-05-10T06:30:06;1.10;;;0.60;;
13051;SDS011;6592;47.484;9.726;2023-05-10T06:32:40;1.98;;;0.50;;
13051;SDS011;6592;47.484;9.726;2023-05-10T06:35:10;4.22;;;0.50;;
13051;SDS011;6592;47.484;9.726;2023-05-10T06:37:38;0.95;;;0.43;;
13051;SDS011;6592;47.484;9.726;2023-05-10T06:40:06;1.33;;;0.50;;
13051;SDS011;6592;47.484;9.726;2023-05-10T06:42:35;2.05;;;0.60;;
13051;SDS011;6592;47.484;9.726;2023-05-10T06:45:04;2.67;;;0.60;;
13051;SDS011;6592;47.484;9.726;2023-05-10T06:47:33;1.42;;;0.70;;
13051;SDS011;6592;47.484;9.726;2023-05-10T06:50:06;2.08;;;0.80;;
13051;SDS011;6592;47.484;9.726;2023-05-10T06:52:35;3.20;;;0.73;;
13051;SDS011;6592;47.484;9.726;2023-05-10T06:55:03;2.97;;;0.70;;
13051;SDS011;6592;47.484;9.726;2023-05-10T06:57:33;3.50;;;0.90;;
13051;SDS011;6592;47.484;9.726;2023-05-10T07:00:02;1.90;;;0.98;;
13051;SDS011;6592;47.484;9.726;2023-05-10T07:02:31;1.23;;;0.60;;
13051;SDS011;6592;47.484;9.726;2023-05-10T07:04:59;2.22;;;0.80;;
13051;SDS011;6592;47.484;9.726;2023-05-10T07:07:30;2.70;;;1.27;;
13051;SDS011;6592;47.484;9.726;2023-05-10T07:09:58;3.33;;;0.95;;
13051;SDS011;6592;47.484;9.726;2023-05-10T07:12:26;1.75;;;0.70;;
13051;SDS011;6592;47.484;9.726;2023-05-10T07:14:55;2.08;;;0.75;;
13051;SDS011;6592;47.484;9.726;2023-05-10T07:17:23;3.10;;;0.80;;
13051;SDS011;6592;47.484;9.726;2023-05-10T07:19:52;1.70;;;0.80;;
13051;SDS011;6592;47.484;9.726;2023-05-10T07:22:20;1.92;;;0.90;;
13051;SDS011;6592;47.484;9.726;2023-05-10T07:24:49;1.83;;;0.70;;
13051;SDS011;6592;47.484;9.726;2023-05-10T07:27:18;2.67;;;1.02;;
13051;SDS011;6592;47.484;9.726;2023-05-10T07:29:46;1.90;;;0.80;;
13051;SDS011;6592;47.484;9.726;2023-05-10T07:32:14;1.75;;;0.90;;
13051;SDS011;6592;47.484;9.726;2023-05-10T07:34:43;1.40;;;0.70;;
13051;SDS011;6592;47.484;9.726;2023-05-10T07:37:11;1.40;;;0.60;;
13051;SDS011;6592;47.484;9.726;2023-05-10T07:39:39;2.30;;;0.60;;
13051;SDS011;6592;47.484;9.726;2023-05-10T07:42:09;1.50;;;0.60;;
13051;SDS011;6592;47.484;9.726;2023-05-10T07:44:37;1.55;;;0.68;;
13051;SDS011;6592;47.484;9.726;2023-05-10T07:47:05;3.58;;;0.98;;
13051;SDS011;6592;47.484;9.726;2023-05-10T07:49:33;1.88;;;0.80;;
13051;SDS011;6592;47.484;9.726;2023-05-10T07:52:03;2.50;;;1.00;;
13051;SDS011;6592;47.484;9.726;2023-05-10T07:54:31;1.85;;;0.85;;
13051;SDS011;6592;47.484;9.726;2023-05-10T07:57:00;3.05;;;0.70;;
13051;SDS011;6592;47.484;9.726;2023-05-10T07:59:30;4.55;;;0.80;;
13051;SDS011;6592;47.484;9.726;2023-05-10T08:01:58;3.05;;;1.02;;
13051;SDS011;6592;47.484;9.726;2023-05-10T08:04:27;3.05;;;1.02;;
13051;SDS011;6592;47.484;9.726;2023-05-10T08:06:55;2.33;;;0.60;;
13051;SDS011;6592;47.484;9.726;2023-05-10T08:09:23;2.25;;;0.70;;
13051;SDS011;6592;47.484;9.726;2023-05-10T08:11:51;2.67;;;1.05;;
13051;SDS011;6592;47.484;9.726;2023-05-10T08:14:19;2.20;;;1.10;;
13051;SDS011;6592;47.484;9.726;2023-05-10T08:16:49;2.45;;;0.68;;
13051;SDS011;6592;47.484;9.726;2023-05-10T08:19:17;1.58;;;0.80;;
13051;SDS011;6592;47.484;9.726;2023-05-10T08:21:45;1.27;;;0.55;;
13051;SDS011;6592;47.484;9.726;2023-05-10T08:24:14;0.80;;;0.40;;
13051;SDS011;6592;47.484;9.726;2023-05-10T08:26:42;0.80;;;0.40;;
13051;SDS011;6592;47.484;9.726;2023-05-10T08:29:10;1.75;;;0.60;;
13051;SDS011;6592;47.484;9.726;2023-05-10T08:31:39;1.45;;;0.60;;
13051;SDS011;6592;47.484;9.726;2023-05-10T08:34:08;1.35;;;0.50;;
13051;SDS011;6592;47.484;9.726;2023-05-10T08:36:36;1.55;;;0.50;;
13051;SDS011;6592;47.484;9.726;2023-05-10T08:39:05;1.35;;;0.55;;
13051;SDS011;6592;47.484;9.726;2023-05-10T08:41:48;1.73;;;0.60;;
13051;SDS011;6592;47.484;9.726;2023-05-10T08:44:20;1.65;;;0.70;;
13051;SDS011;6592;47.484;9.726;2023-05-10T08:46:48;3.00;;;0.75;;
13051;SDS011;6592;47.484;9.726;2023-05-10T08:49:22;2.13;;;0.70;;
13051;SDS011;6592;47.484;9.726;2023-05-10T08:51:54;2.95;;;1.20;;
13051;SDS011;6592;47.484;9.726;2023-05-10T08:56:52;0.60;;;0.38;;
13051;SDS011;6592;47.484;9.726;2023-05-10T08:59:20;4.00;;;1.92;;
13051;SDS011;6592;47.484;9.726;2023-05-10T09:01:49;2.13;;;0.93;;
13051;SDS011;6592;47.484;9.726;2023-05-10T09:04:19;0.98;;;0.40;;
13051;SDS011;6592;47.484;9.726;2023-05-10T09:06:50;1.88;;;0.45;;
13051;SDS011;6592;47.484;9.726;2023-05-10T09:09:19;2.05;;;0.50;;
13051;SDS011;6592;47.484;9.726;2023-05-10T09:11:47;0.88;;;0.38;;
13051;SDS011;6592;47.484;9.726;2023-05-10T09:14:16;0.38;;;0.22;;
13051;SDS011;6592;47.484;9.726;2023-05-10T09:16:45;0.50;;;0.20;;
13051;SDS011;6592;47.484;9.726;2023-05-10T09:19:14;0.82;;;0.30;;
13051;SDS011;6592;47.484;9.726;2023-05-10T09:21:43;0.45;;;0.30;;
13051;SDS011;6592;47.484;9.726;2023-05-10T09:24:12;0.90;;;0.32;;
13051;SDS011;6592;47.484;9.726;2023-05-10T09:26:45;1.67;;;0.40;;
13051;SDS011;6592;47.484;9.726;2023-05-10T09:29:15;1.30;;;0.30;;
13051;SDS011;6592;47.484;9.726;2023-05-10T09:31:44;1.13;;;0.40;;
13051;SDS011;6592;47.484;9.726;2023-05-10T09:34:17;1.20;;;0.30;;
13051;SDS011;6592;47.484;9.726;2023-05-10T09:36:52;1.55;;;0.30;;
13051;SDS011;6592;47.484;9.726;2023-05-10T09:39:28;1.67;;;0.32;;
13051;SDS011;6592;47.484;9.726;2023-05-10T09:41:58;0.55;;;0.20;;
13051;SDS011;6592;47.484;9.726;2023-05-10T09:44:30;0.75;;;0.30;;
13051;SDS011;6592;47.484;9.726;2023-05-10T09:46:58;1.15;;;0.30;;
13051;SDS011;6592;47.484;9.726;2023-05-10T09:49:27;0.63;;;0.20;;
13051;SDS011;6592;47.484;9.726;2023-05-10T09:52:03;0.88;;;0.30;;
13051;SDS011;6592;47.484;9.726;2023-05-10T09:54:33;0.30;;;0.10;;
13051;SDS011;6592;47.484;9.726;2023-05-10T09:57:02;0.60;;;0.30;;
13051;SDS011;6592;47.484;9.726;2023-05-10T09:59:32;1.13;;;0.40;;
13051;SDS011;6592;47.484;9.726;2023-05-10T10:02:01;0.82;;;0.30;;
13051;SDS011;6592;47.484;9.726;2023-05-10T10:04:30;0.73;;;0.30;;
13051;SDS011;6592;47.484;9.726;2023-05-10T10:06:59;0.17;;;0.10;;
13051;SDS011;6592;47.484;9.726;2023-05-10T10:09:30;0.47;;;0.20;;
13051;SDS011;6592;47.484;9.726;2023-05-10T10:11:59;0.20;;;0.10;;
13051;SDS011;6592;47.484;9.726;2023-05-10T10:14:27;0.00;;;0.00;;
13051;SDS011;6592;47.484;9.726;2023-05-10T10:16:56;0.82;;;0.17;;
13051;SDS011;6592;47.484;9.726;2023-05-10T10:19:30;0.40;;;0.20;;
13051;SDS011;6592;47.484;9.726;2023-05-10T10:24:31;0.38;;;0.20;;
13051;SDS011;6592;47.484;9.726;2023-05-10T10:27:02;0.55;;;0.20;;
13051;SDS011;6592;47.484;9.726;2023-05-10T10:29:43;0.50;;;0.20;;
13051;SDS011;6592;47.484;9.726;2023-05-10T10:32:22;0.60;;;0.20;;
13051;SDS011;6592;47.484;9.726;2023-05-10T10:34:55;1.30;;;0.60;;
13051;SDS011;6592;47.484;9.726;2023-05-10T10:37:24;0.68;;;0.30;;
13051;SDS011;6592;47.484;9.726;2023-05-10T10:40:24;1.52;;;0.50;;
13051;SDS011;6592;47.484;9.726;2023-05-10T10:48:39;1.00;;;0.30;;
13051;SDS011;6592;47.484;9.726;2023-05-10T10:51:08;1.05;;;0.40;;
13051;SDS011;6592;47.484;9.726;2023-05-10T10:53:39;1.27;;;0.35;;
13051;SDS011;6592;47.484;9.726;2023-05-10T10:56:10;0.98;;;0.47;;
13051;SDS011;6592;47.484;9.726;2023-05-10T10:58:42;0.73;;;0.40;;
13051;SDS011;6592;47.484;9.726;2023-05-10T11:01:17;0.65;;;0.30;;
13051;SDS011;6592;47.484;9.726;2023-05-10T11:06:47;1.50;;;0.20;;
13051;SDS011;6592;47.484;9.726;2023-05-10T11:09:15;0.82;;;0.30;;
13051;SDS011;6592;47.484;9.726;2023-05-10T11:11:52;0.93;;;0.30;;
13051;SDS011;6592;47.484;9.726;2023-05-10T11:14:22;1.05;;;0.28;;
13051;SDS011;6592;47.484;9.726;2023-05-10T11:16:50;3.13;;;0.40;;
13051;SDS011;6592;47.484;9.726;2023-05-10T11:19:19;0.60;;;0.30;;
13051;SDS011;6592;47.484;9.726;2023-05-10T11:21:47;0.73;;;0.30;;
13051;SDS011;6592;47.484;9.726;2023-05-10T11:24:17;0.70;;;0.30;;
13051;SDS011;6592;47.484;9.726;2023-05-10T11:26:49;2.17;;;0.40;;
13051;SDS011;6592;47.484;9.726;2023-05-10T11:29:19;1.27;;;0.40;;
13051;SDS011;6592;47.484;9.726;2023-05-10T11:31:49;1.00;;;0.50;;
13051;SDS011;6592;47.484;9.726;2023-05-10T11:34:24;2.92;;;0.80;;
13051;SDS011;6592;47.484;9.726;2023-05-10T11:36:54;1.52;;;0.60;;
13051;SDS011;6592;47.484;9.726;2023-05-10T11:39:25;2.60;;;0.70;;
13051;SDS011;6592;47.484;9.726;2023-05-10T11:44:24;1.25;;;0.40;;
13051;SDS011;6592;47.484;9.726;2023-05-10T11:46:58;2.15;;;0.30;;
13051;SDS011;6592;47.484;9.726;2023-05-10T11:49:27;1.40;;;0.47;;
13051;SDS011;6592;47.484;9.726;2023-05-10T11:52:03;1.52;;;0.50;;
13051;SDS011;6592;47.484;9.726;2023-05-10T11:54:32;3.03;;;0.57;;
13051;SDS011;6592;47.484;9.726;2023-05-10T11:57:01;1.17;;;0.40;;
13051;SDS011;6592;47.484;9.726;2023-05-10T11:59:31;1.25;;;0.45;;
13051;SDS011;6592;47.484;9.726;2023-05-10T12:01:59;0.60;;;0.30;;
13051;SDS011;6592;47.484;9.726;2023-05-10T12:04:28;2.85;;;0.52;;
13051;SDS011;6592;47.484;9.726;2023-05-10T12:06:56;1.10;;;0.40;;
13051;SDS011;6592;47.484;9.726;2023-05-10T12:09:25;1.92;;;0.40;;
13051;SDS011;6592;47.484;9.726;2023-05-10T12:11:56;1.55;;;0.40;;
13051;SDS011;6592;47.484;9.726;2023-05-10T12:14:24;1.55;;;0.60;;
13051;SDS011;6592;47.484;9.726;2023-05-10T12:16:54;1.67;;;0.40;;
13051;SDS011;6592;47.484;9.726;2023-05-10T12:19:24;1.70;;;0.60;;
13051;SDS011;6592;47.484;9.726;2023-05-10T12:21:53;1.05;;;0.50;;
13051;SDS011;6592;47.484;9.726;2023-05-10T12:24:21;1.23;;;0.47;;
13051;SDS011;6592;47.484;9.726;2023-05-10T12:26:51;0.80;;;0.35;;
13051;SDS011;6592;47.484;9.726;2023-05-10T12:29:19;1.08;;;0.50;;
13051;SDS011;6592;47.484;9.726;2023-05-10T12:31:51;1.27;;;0.50;;
13051;SDS011;6592;47.484;9.726;2023-05-10T12:34:22;1.95;;;0.40;;
13051;SDS011;6592;47.484;9.726;2023-05-10T12:36:54;0.98;;;0.40;;
13051;SDS011;6592;47.484;9.726;2023-05-10T12:39:23;0.88;;;0.40;;
13051;SDS011;6592;47.484;9.726;2023-05-10T12:41:51;1.05;;;0.50;;
13051;SDS011;6592;47.484;9.726;2023-05-10T12:44:19;1.55;;;0.40;;
13051;SDS011;6592;47.484;9.726;2023-05-10T12:46:48;3.75;;;0.60;;
13051;SDS011;6592;47.484;9.726;2023-05-10T12:49:17;1.33;;;0.50;;
13051;SDS011;6592;47.484;9.726;2023-05-10T12:51:45;2.97;;;0.60;;
13051;SDS011;6592;47.484;9.726;2023-05-10T12:54:14;1.42;;;0.55;;
13051;SDS011;6592;47.484;9.726;2023-05-10T12:56:42;1.80;;;0.30;;
13051;SDS011;6592;47.484;9.726;2023-05-10T12:59:11;3.08;;;0.75;;
13051;SDS011;6592;47.484;9.726;2023-05-10T13:01:39;1.58;;;0.57;;
13051;SDS011;6592;47.484;9.726;2023-05-10T13:04:07;1.00;;;0.45;;
13051;SDS011;6592;47.484;9.726;2023-05-10T13:06:38;1.30;;;0.70;;
13051;SDS011;6592;47.484;9.726;2023-05-10T13:09:06;0.63;;;0.38;;
13051;SDS011;6592;47.484;9.726;2023-05-10T13:11:35;1.33;;;0.52;;
13051;SDS011;6592;47.484;9.726;2023-05-10T13:14:03;3.70;;;1.13;;
13051;SDS011;6592;47.484;9.726;2023-05-10T13:16:31;4.72;;;2.10;;
13051;SDS011;6592;47.484;9.726;2023-05-10T13:19:00;1.67;;;0.57;;
13051;SDS011;6592;47.484;9.726;2023-05-10T13:21:28;1.58;;;0.60;;
13051;SDS011;6592;47.484;9.726;2023-05-10T13:23:58;1.13;;;0.57;;
13051;SDS011;6592;47.484;9.726;2023-05-10T13:26:26;1.10;;;0.50;;
13051;SDS011;6592;47.484;9.726;2023-05-10T13:28:55;1.48;;;0.60;;
13051;SDS011;6592;47.484;9.726;2023-05-10T13:31:23;1.77;;;0.70;;
13051;SDS011;6592;47.484;9.726;2023-05-10T13:33:51;3.10;;;0.55;;
13051;SDS011;6592;47.484;9.726;2023-05-10T13:36:19;1.45;;;0.60;;
13051;SDS011;6592;47.484;9.726;2023-05-10T13:38:49;1.50;;;0.52;;
13051;SDS011;6592;47.484;9.726;2023-05-10T13:41:18;1.60;;;0.60;;
13051;SDS011;6592;47.484;9.726;2023-05-10T13:43:47;2.92;;;0.60;;
13051;SDS011;6592;47.484;9.726;2023-05-10T13:46:15;0.63;;;0.40;;
13051;SDS011;6592;47.484;9.726;2023-05-10T13:48:44;1.00;;;0.50;;
13051;SDS011;6592;47.484;9.726;2023-05-10T13:51:12;1.70;;;0.70;;
13051;SDS011;6592;47.484;9.726;2023-05-10T13:53:40;2.38;;;0.80;;
13051;SDS011;6592;47.484;9.726;2023-05-10T13:56:08;1.10;;;0.57;;
13051;SDS011;6592;47.484;9.726;2023-05-10T13:58:38;1.50;;;0.40;;
13051;SDS011;6592;47.484;9.726;2023-05-10T14:01:06;1.23;;;0.40;;
13051;SDS011;6592;47.484;9.726;2023-05-10T14:03:35;3.35;;;0.50;;
13051;SDS011;6592;47.484;9.726;2023-05-10T14:06:03;1.58;;;0.63;;
13051;SDS011;6592;47.484;9.726;2023-05-10T14:08:33;1.08;;;0.35;;
13051;SDS011;6592;47.484;9.726;2023-05-10T14:11:02;1.83;;;0.50;;
13051;SDS011;6592;47.484;9.726;2023-05-10T14:13:31;1.27;;;0.50;;
13051;SDS011;6592;47.484;9.726;2023-05-10T14:16:00;2.05;;;0.50;;
13051;SDS011;6592;47.484;9.726;2023-05-10T14:18:28;1.00;;;0.50;;
13051;SDS011;6592;47.484;9.726;2023-05-10T14:20:57;1.10;;;0.50;;
13051;SDS011;6592;47.484;9.726;2023-05-10T14:23:25;1.73;;;0.50;;
13051;SDS011;6592;47.484;9.726;2023-05-10T14:25:55;0.55;;;0.30;;
13051;SDS011;6592;47.484;9.726;2023-05-10T14:28:23;2.08;;;0.60;;
13051;SDS011;6592;47.484;9.726;2023-05-10T14:30:52;1.17;;;0.60;;
13051;SDS011;6592;47.484;9.726;2023-05-10T14:33:21;2.80;;;0.80;;
13051;SDS011;6592;47.484;9.726;2023-05-10T14:35:49;1.40;;;0.50;;
13051;SDS011;6592;47.484;9.726;2023-05-10T14:38:18;1.30;;;0.57;;
13051;SDS011;6592;47.484;9.726;2023-05-10T14:40:46;1.50;;;0.60;;
13051;SDS011;6592;47.484;9.726;2023-05-10T14:43:14;2.90;;;0.50;;
13051;SDS011;6592;47.484;9.726;2023-05-10T14:45:43;2.05;;;0.70;;
13051;SDS011;6592;47.484;9.726;2023-05-10T14:48:11;2.83;;;0.55;;
13051;SDS011;6592;47.484;9.726;2023-05-10T14:50:43;1.23;;;0.40;;
13051;SDS011;6592;47.484;9.726;2023-05-10T14:53:11;1.13;;;0.57;;
13051;SDS011;6592;47.484;9.726;2023-05-10T14:55:39;0.98;;;0.30;;
13051;SDS011;6592;47.484;9.726;2023-05-10T14:58:07;1.67;;;0.50;;
13051;SDS011;6592;47.484;9.726;2023-05-10T15:00:36;1.27;;;0.40;;
13051;SDS011;6592;47.484;9.726;2023-05-10T15:03:04;0.65;;;0.40;;
13051;SDS011;6592;47.484;9.726;2023-05-10T15:05:33;0.75;;;0.30;;
13051;SDS011;6592;47.484;9.726;2023-05-10T15:08:05;1.65;;;0.50;;
13051;SDS011;6592;47.484;9.726;2023-05-10T15:10:33;2.70;;;0.38;;
13051;SDS011;6592;47.484;9.726;2023-05-10T15:13:03;1.45;;;0.40;;
13051;SDS011;6592;47.484;9.726;2023-05-10T15:15:32;0.95;;;0.30;;
13051;SDS011;6592;47.484;9.726;2023-05-10T15:18:00;1.30;;;0.47;;
13051;SDS011;6592;47.484;9.726;2023-05-10T15:20:28;1.33;;;0.50;;
13051;SDS011;6592;47.484;9.726;2023-05-10T15:22:56;1.02;;;0.40;;
13051;SDS011;6592;47.484;9.726;2023-05-10T15:25:26;0.93;;;0.40;;
13051;SDS011;6592;47.484;9.726;2023-05-10T15:27:55;0.63;;;0.38;;
13051;SDS011;6592;47.484;9.726;2023-05-10T15:30:23;1.55;;;0.60;;
13051;SDS011;6592;47.484;9.726;2023-05-10T15:32:51;2.78;;;0.63;;
13051;SDS011;6592;47.484;9.726;2023-05-10T15:35:19;1.95;;;0.70;;
13051;SDS011;6592;47.484;9.726;2023-05-10T15:37:48;1.20;;;0.50;;